createdAt,value
2019-06-20T00:00:15.555Z,7.37
2019-06-20T00:03:13.684Z,6.87
2019-06-20T00:06:11.807Z,6.80
2019-06-20T00:09:09.665Z,5.77
2019-06-20T00:12:07.879Z,6.90
2019-06-20T00:15:05.648Z,6.90
2019-06-20T00:18:03.431Z,6.23
2019-06-20T00:21:01.444Z,5.00
2019-06-20T00:23:59.389Z,4.80
2019-06-20T00:26:57.350Z,5.07
2019-06-20T00:29:55.115Z,5.53
2019-06-20T00:32:53.156Z,2.70
2019-06-20T00:35:50.845Z,4.10
2019-06-20T00:38:48.864Z,8.27
2019-06-20T00:41:46.920Z,4.90
2019-06-20T00:44:44.717Z,3.43
2019-06-20T00:47:42.732Z,4.77
2019-06-20T00:50:40.761Z,4.33
2019-06-20T00:53:38.762Z,3.07
2019-06-20T00:56:36.728Z,3.00
2019-06-20T00:59:34.987Z,2.33
2019-06-20T01:02:32.664Z,2.70
2019-06-20T01:05:30.703Z,3.00
2019-06-20T01:08:28.642Z,3.30
2019-06-20T01:11:27.116Z,4.13
2019-06-20T01:14:25.081Z,2.03
2019-06-20T01:17:23.143Z,2.30
2019-06-20T01:20:20.900Z,2.70
2019-06-20T01:23:18.565Z,3.73
2019-06-20T01:26:16.627Z,2.70
2019-06-20T01:29:14.584Z,3.43
2019-06-20T01:32:12.922Z,2.57
2019-06-20T01:35:10.792Z,2.00
2019-06-20T01:38:08.964Z,2.50
2019-06-20T01:41:07.012Z,2.63
2019-06-20T01:44:04.736Z,3.33
2019-06-20T01:47:02.671Z,2.70
2019-06-20T01:50:01.091Z,4.97
2019-06-20T01:52:59.033Z,3.60
2019-06-20T01:55:56.987Z,4.53
2019-06-20T01:58:54.943Z,3.53
2019-06-20T02:01:52.725Z,4.40
2019-06-20T02:04:50.449Z,3.80
2019-06-20T02:07:48.425Z,4.50
2019-06-20T02:10:46.160Z,8.00
2019-06-20T02:13:44.224Z,4.97
2019-06-20T02:16:42.177Z,3.83
2019-06-20T02:19:39.864Z,4.10
2019-06-20T02:22:37.890Z,4.37
2019-06-20T02:25:35.642Z,4.40
2019-06-20T02:28:33.669Z,8.63
2019-06-20T02:31:31.400Z,6.57
2019-06-20T02:34:29.397Z,5.50
2019-06-20T02:37:27.090Z,5.83
2019-06-20T02:40:24.831Z,5.80
2019-06-20T02:43:22.583Z,5.67
2019-06-20T02:46:20.749Z,5.30
2019-06-20T02:49:18.800Z,6.13
2019-06-20T02:52:16.545Z,8.70
2019-06-20T02:55:14.504Z,6.10
2019-06-20T02:58:12.335Z,5.10
2019-06-20T03:01:10.061Z,4.67
2019-06-20T03:04:08.068Z,7.73
2019-06-20T03:07:06.021Z,4.10
2019-06-20T03:10:04.536Z,5.50
2019-06-20T03:13:02.296Z,3.80
2019-06-20T03:16:00.351Z,3.63
2019-06-20T03:18:58.112Z,4.20
2019-06-20T03:21:56.121Z,4.30
2019-06-20T03:24:54.083Z,5.83
2019-06-20T03:27:52.158Z,4.03
2019-06-20T03:30:50.156Z,4.17
2019-06-20T03:33:47.828Z,3.77
2019-06-20T03:36:46.116Z,9.23
2019-06-20T03:39:44.491Z,8.43
2019-06-20T03:42:42.147Z,4.73
2019-06-20T03:45:40.234Z,5.80
2019-06-20T03:48:38.777Z,5.10
2019-06-20T03:51:36.444Z,5.97
2019-06-20T04:18:33.895Z,4.27
2019-06-20T04:21:33.186Z,5.40
2019-06-20T04:24:32.282Z,5.17
2019-06-20T04:27:31.352Z,5.70
2019-06-20T04:30:30.186Z,5.27
2019-06-20T04:33:29.236Z,7.20
2019-06-20T04:36:28.831Z,5.57
2019-06-20T04:39:27.641Z,5.43
2019-06-20T04:42:26.673Z,4.30
2019-06-20T04:45:56.538Z,8.60
2019-06-20T04:48:55.535Z,6.50
2019-06-20T04:51:54.531Z,4.90
2019-06-20T04:54:53.678Z,5.90
2019-06-20T04:57:52.393Z,6.77
2019-06-20T05:00:51.478Z,6.13
2019-06-20T05:03:50.199Z,5.70
2019-06-20T05:06:53.276Z,5.03
2019-06-20T05:09:52.626Z,4.13
2019-06-20T05:12:51.595Z,6.57
2019-06-20T05:15:53.015Z,5.57
2019-06-20T05:18:52.134Z,4.80
2019-06-20T05:21:50.875Z,5.47
2019-06-20T05:24:49.953Z,3.83
2019-06-20T05:27:49.012Z,4.80
2019-06-20T05:30:48.489Z,9.73
2019-06-20T05:33:48.088Z,4.23
2019-06-20T05:36:47.104Z,7.83
2019-06-20T05:39:45.840Z,6.13
2019-06-20T05:42:44.872Z,3.97
2019-06-20T05:45:47.636Z,5.60
2019-06-20T05:48:44.674Z,4.30
2019-06-20T05:51:43.651Z,6.10
2019-06-20T05:54:43.166Z,5.57
2019-06-20T05:57:42.228Z,4.57
2019-06-20T06:00:41.300Z,5.73
2019-06-20T06:03:40.454Z,4.67
2019-06-20T06:06:40.150Z,3.70
2019-06-20T06:09:39.237Z,3.60
2019-06-20T06:12:38.670Z,5.80
2019-06-20T06:15:37.453Z,3.30
2019-06-20T06:18:36.632Z,4.50
2019-06-20T06:21:35.369Z,10.20
2019-06-20T06:24:34.091Z,4.57
2019-06-20T06:27:32.817Z,5.73
2019-06-20T06:30:31.937Z,5.07
2019-06-20T06:33:31.212Z,3.40
2019-06-20T06:36:30.850Z,5.17
2019-06-20T06:39:29.597Z,6.30
2019-06-20T06:42:28.595Z,4.00
2019-06-20T06:45:28.204Z,6.67
2019-06-20T06:48:27.455Z,5.70
2019-06-20T06:51:26.430Z,4.73
2019-06-20T06:54:25.921Z,6.30
2019-06-20T06:57:24.650Z,4.00
2019-06-20T07:00:23.523Z,4.17
2019-06-20T07:03:22.345Z,5.10
2019-06-20T07:06:21.447Z,3.37
2019-06-20T07:09:20.229Z,4.40
2019-06-20T07:12:19.470Z,6.93
2019-06-20T07:15:18.709Z,3.60
2019-06-20T07:18:17.511Z,4.83
2019-06-20T07:21:16.658Z,3.80
2019-06-20T07:24:15.734Z,5.50
2019-06-20T07:27:13.505Z,3.50
2019-06-20T07:30:11.561Z,5.13
2019-06-20T07:33:09.226Z,4.60
2019-06-20T07:36:07.255Z,4.90
2019-06-20T07:39:06.636Z,4.37
2019-06-20T07:42:04.305Z,8.70
2019-06-20T07:45:02.355Z,4.13
2019-06-20T07:48:00.016Z,5.53
2019-06-20T07:50:57.699Z,5.70
2019-06-20T07:53:55.363Z,4.60
2019-06-20T07:56:53.576Z,3.27
2019-06-20T07:59:51.527Z,4.60
2019-06-20T08:02:49.267Z,4.23
2019-06-20T08:05:46.920Z,3.63
2019-06-20T08:08:45.565Z,2.87
2019-06-20T08:11:43.623Z,2.93
2019-06-20T08:14:41.786Z,3.60
2019-06-20T08:17:39.920Z,3.00
2019-06-20T08:20:37.701Z,5.53
2019-06-20T08:23:35.721Z,7.73
2019-06-20T08:26:33.457Z,4.30
2019-06-20T08:29:31.828Z,3.90
2019-06-20T08:32:29.582Z,4.43
2019-06-20T08:35:29.377Z,3.23
2019-06-20T08:38:27.117Z,5.03
2019-06-20T08:41:25.077Z,4.73
2019-06-20T08:44:23.047Z,5.73
2019-06-20T08:47:21.417Z,3.27
2019-06-20T08:50:19.892Z,4.70
2019-06-20T08:53:17.975Z,3.63
2019-06-20T08:56:15.680Z,4.43
2019-06-20T08:59:23.880Z,4.60
2019-06-20T09:02:13.062Z,3.90
2019-06-20T09:05:11.623Z,5.03
2019-06-20T09:08:11.491Z,5.27
2019-06-20T09:11:09.261Z,3.90
2019-06-20T09:14:07.065Z,3.40
2019-06-20T09:17:05.084Z,3.80
2019-06-20T09:20:02.972Z,4.80
2019-06-20T09:23:01.322Z,4.13
2019-06-20T09:25:59.636Z,3.70
2019-06-20T09:28:59.297Z,4.13
2019-06-20T09:31:58.361Z,3.73
2019-06-20T09:34:56.664Z,5.10
2019-06-20T09:37:55.159Z,6.97
2019-06-20T09:40:54.726Z,4.20
2019-06-20T09:43:54.232Z,4.20
2019-06-20T09:46:52.863Z,4.57
2019-06-20T09:49:55.240Z,4.70
2019-06-20T09:52:53.179Z,4.40
2019-06-20T09:55:51.901Z,3.53
2019-06-20T09:58:51.164Z,4.00
2019-06-20T10:01:50.059Z,3.80
2019-06-20T10:04:49.493Z,4.67
2019-06-20T10:07:48.682Z,4.23
2019-06-20T10:10:49.354Z,5.90
2019-06-20T10:13:48.197Z,4.07
2019-06-20T10:16:50.106Z,5.47
2019-06-20T10:19:46.824Z,4.30
2019-06-20T10:22:45.850Z,4.43
2019-06-20T10:25:46.062Z,6.40
2019-06-20T10:28:46.317Z,8.17
2019-06-20T10:31:46.300Z,4.17
2019-06-20T10:34:45.659Z,3.70
2019-06-20T10:37:45.599Z,5.37
2019-06-20T10:40:46.059Z,5.83
2019-06-20T10:43:44.178Z,4.90
2019-06-20T10:46:42.874Z,4.70
2019-06-20T10:49:43.073Z,5.00
2019-06-20T10:52:42.554Z,5.03
2019-06-20T10:55:42.096Z,6.20
2019-06-20T10:58:42.005Z,5.17
2019-06-20T11:01:41.490Z,6.03
2019-06-20T11:04:42.018Z,4.77
2019-06-20T11:07:40.761Z,7.70
2019-06-20T11:10:40.395Z,7.13
2019-06-20T11:13:39.523Z,5.57
2019-06-20T11:16:38.468Z,4.97
2019-06-20T11:19:38.604Z,4.13
2019-06-20T11:22:38.391Z,4.70
2019-06-20T11:25:37.209Z,4.37
2019-06-20T11:28:37.721Z,5.00
2019-06-20T11:31:37.504Z,4.30
2019-06-20T11:34:37.680Z,3.60
2019-06-20T11:37:36.451Z,6.50
2019-06-20T11:40:36.369Z,4.07
2019-06-20T11:43:36.199Z,4.03
2019-06-20T11:46:35.295Z,4.10
2019-06-20T11:49:35.176Z,4.43
2019-06-20T11:52:38.099Z,3.73
2019-06-20T11:55:33.060Z,3.60
2019-06-20T11:58:31.114Z,3.90
2019-06-20T12:01:32.776Z,4.00
2019-06-20T12:04:28.881Z,5.20
2019-06-20T12:07:26.903Z,3.60
2019-06-20T12:10:24.672Z,5.60
2019-06-20T12:13:23.047Z,2.90
2019-06-20T12:16:20.751Z,3.13
2019-06-20T12:19:18.537Z,4.17
2019-06-20T12:22:16.769Z,4.90
2019-06-20T12:25:14.844Z,3.20
2019-06-20T12:28:12.844Z,3.07
2019-06-20T12:31:19.578Z,3.03
2019-06-20T12:34:10.322Z,3.13
2019-06-20T12:37:07.986Z,4.03
2019-06-20T12:40:05.842Z,4.03
2019-06-20T12:43:03.619Z,4.03
2019-06-20T12:46:01.616Z,3.50
2019-06-20T12:48:59.898Z,3.40
2019-06-20T12:51:57.570Z,3.63
2019-06-20T12:54:55.531Z,4.43
2019-06-20T12:57:53.826Z,5.50
2019-06-20T13:00:51.918Z,4.50
2019-06-20T13:03:50.595Z,3.43
2019-06-20T13:06:49.512Z,4.27
2019-06-20T13:09:48.334Z,3.73
2019-06-20T13:12:46.541Z,4.13
2019-06-20T13:15:44.918Z,4.10
2019-06-20T13:18:43.124Z,4.97
2019-06-20T13:21:42.140Z,3.60
2019-06-20T13:24:41.040Z,3.40
2019-06-20T13:27:39.749Z,4.00
2019-06-20T13:30:39.864Z,4.80
2019-06-20T13:33:39.100Z,5.33
2019-06-20T13:36:38.175Z,5.23
2019-06-20T13:39:38.512Z,4.57
2019-06-20T13:42:39.064Z,5.57
2019-06-20T13:45:36.555Z,5.40
2019-06-20T13:48:34.283Z,3.80
2019-06-20T13:51:32.289Z,3.80
2019-06-20T13:54:30.382Z,5.33
2019-06-20T13:57:28.115Z,5.07
2019-06-20T14:00:26.557Z,5.30
2019-06-20T14:03:24.629Z,14.13
2019-06-20T14:06:22.348Z,10.90
2019-06-20T14:09:20.037Z,10.80
2019-06-20T14:12:18.106Z,18.50
2019-06-20T14:15:16.375Z,14.73
2019-06-20T14:18:14.369Z,10.00
2019-06-20T14:21:12.742Z,16.27
2019-06-20T14:24:10.793Z,10.93
2019-06-20T14:27:09.159Z,15.57
2019-06-20T14:30:07.356Z,15.70
2019-06-20T14:33:05.494Z,10.70
2019-06-20T14:36:50.930Z,22.30
2019-06-20T14:39:48.848Z,15.17
2019-06-20T14:42:47.853Z,18.03
2019-06-20T14:45:46.844Z,21.17
2019-06-20T14:48:46.694Z,17.43
2019-06-20T14:51:45.372Z,21.60
2019-06-20T14:54:45.869Z,15.30
2019-06-20T14:57:46.203Z,15.17
2019-06-20T15:00:44.727Z,22.90
2019-06-20T15:03:45.545Z,14.27
2019-06-20T15:06:44.893Z,19.10
2019-06-20T15:09:42.346Z,19.30
2019-06-20T15:12:40.044Z,17.57
2019-06-20T15:15:37.801Z,19.33
2019-06-20T15:18:35.496Z,20.90
2019-06-20T15:21:33.271Z,13.07
2019-06-20T15:24:32.056Z,15.90
2019-06-20T15:27:29.735Z,15.67
2019-06-20T15:30:27.420Z,16.00
2019-06-20T15:33:25.155Z,12.87
2019-06-20T15:36:22.864Z,16.27
2019-06-20T15:39:20.822Z,12.57
2019-06-20T15:42:18.579Z,13.73
2019-06-20T15:45:16.524Z,14.50
2019-06-20T15:48:14.303Z,10.93
2019-06-20T15:51:11.983Z,12.80
2019-06-20T15:54:09.764Z,14.00
2019-06-20T15:57:07.745Z,8.40
2019-06-20T16:00:05.668Z,7.80
2019-06-20T16:03:09.914Z,9.50
2019-06-20T16:06:02.807Z,10.20
2019-06-20T16:09:00.882Z,9.47
2019-06-20T16:11:58.668Z,8.20
2019-06-20T16:14:56.603Z,8.60
2019-06-20T16:17:54.312Z,6.10
2019-06-20T16:20:52.030Z,5.60
2019-06-20T16:23:49.731Z,9.07
2019-06-20T16:26:47.721Z,5.37
2019-06-20T16:29:45.641Z,7.50
2019-06-20T16:32:43.346Z,4.13
2019-06-20T16:35:41.434Z,4.87
2019-06-20T16:38:39.133Z,4.80
2019-06-20T16:41:36.807Z,5.50
2019-06-20T16:44:34.520Z,4.73
2019-06-20T16:47:32.622Z,5.53
2019-06-20T16:50:30.292Z,4.73
2019-06-20T16:53:28.000Z,4.93
2019-06-20T16:56:25.673Z,4.27
2019-06-20T16:59:23.349Z,4.23
2019-06-20T17:02:21.139Z,4.63
2019-06-20T17:05:19.239Z,5.37
2019-06-20T17:08:17.259Z,4.17
2019-06-20T17:11:14.960Z,4.23
2019-06-20T17:14:12.938Z,4.23
2019-06-20T17:17:10.956Z,5.20
2019-06-20T17:20:10.504Z,4.03
2019-06-20T17:23:08.552Z,5.27
2019-06-20T17:26:06.768Z,7.23
2019-06-20T17:29:04.833Z,5.67
2019-06-20T17:32:02.885Z,5.03
2019-06-20T17:35:00.844Z,4.47
2019-06-20T17:37:58.849Z,7.00
2019-06-20T17:40:56.524Z,4.97
2019-06-20T17:43:54.212Z,5.50
2019-06-20T17:46:52.269Z,6.60
2019-06-20T17:49:50.300Z,5.23
2019-06-20T17:52:48.082Z,7.73
2019-06-20T17:55:46.184Z,7.73
2019-06-20T17:58:44.209Z,5.93
2019-06-20T18:01:42.256Z,7.57
2019-06-20T18:04:39.984Z,5.47
2019-06-20T18:07:37.991Z,4.90
2019-06-20T18:10:35.994Z,6.60
2019-06-20T18:13:33.744Z,4.73
2019-06-20T18:16:31.616Z,6.40
2019-06-20T18:19:29.316Z,5.47
2019-06-20T18:22:27.364Z,7.70
2019-06-20T18:25:25.052Z,6.30
2019-06-20T18:28:22.767Z,5.40
2019-06-20T18:31:20.500Z,5.37
2019-06-20T18:34:29.650Z,7.80
2019-06-20T18:37:30.886Z,5.63
2019-06-20T18:40:18.464Z,5.07
2019-06-20T18:43:16.218Z,7.03
2019-06-20T18:46:13.930Z,4.40
2019-06-20T18:49:11.936Z,6.00
2019-06-20T18:52:09.705Z,6.30
2019-06-20T18:55:07.776Z,4.80
2019-06-20T18:58:05.537Z,6.10
2019-06-20T19:01:03.255Z,5.57
2019-06-20T19:04:01.326Z,7.70
2019-06-20T19:06:59.036Z,7.93
2019-06-20T19:09:56.726Z,6.80
2019-06-20T19:12:54.685Z,5.20
2019-06-20T19:15:52.849Z,6.03
2019-06-20T19:18:50.525Z,7.63
2019-06-20T19:21:48.206Z,7.23
2019-06-20T19:24:46.533Z,7.47
2019-06-20T19:27:46.797Z,5.50
2019-06-20T19:30:45.795Z,4.97
2019-06-20T19:33:43.613Z,4.93
2019-06-20T19:36:41.370Z,5.90
2019-06-20T19:39:39.481Z,7.17
2019-06-20T19:42:37.209Z,11.23
2019-06-20T19:45:35.132Z,6.50
2019-06-20T19:48:32.893Z,9.00
2019-06-20T19:51:30.641Z,8.77
2019-06-20T19:54:28.840Z,5.80
2019-06-20T19:57:26.596Z,10.63
2019-06-20T20:00:24.789Z,11.77
2019-06-20T20:03:22.822Z,51.63
2019-06-20T20:06:20.614Z,39.90
2019-06-20T20:09:18.350Z,13.63
2019-06-20T20:12:16.122Z,8.43
2019-06-20T20:15:14.083Z,8.63
2019-06-20T20:18:11.837Z,8.03
2019-06-20T20:21:09.562Z,8.17
2019-06-20T20:24:07.379Z,10.63
2019-06-20T20:27:05.357Z,37.23
2019-06-20T20:30:03.152Z,12.00
2019-06-20T20:33:02.170Z,8.27
2019-06-20T20:36:01.909Z,9.47
2019-06-20T20:38:59.368Z,9.73
2019-06-20T20:41:57.392Z,10.23
2019-06-20T20:44:55.083Z,9.03
2019-06-20T20:47:52.781Z,11.20
2019-06-20T20:50:50.540Z,8.70
2019-06-20T20:53:48.914Z,8.20
2019-06-20T20:56:46.613Z,7.93
2019-06-20T20:59:44.288Z,9.97
2019-06-20T21:02:41.980Z,12.70
2019-06-20T21:05:50.866Z,8.70
2019-06-20T21:08:39.435Z,9.40
2019-06-20T21:11:37.377Z,8.87
2019-06-20T21:14:35.351Z,8.30
2019-06-20T21:17:33.108Z,7.90
2019-06-20T21:20:30.784Z,7.00
2019-06-20T21:23:28.473Z,8.07
2019-06-20T21:26:26.594Z,9.47
2019-06-20T21:29:24.288Z,9.67
2019-06-20T21:32:21.984Z,11.17
2019-06-20T21:35:19.740Z,7.83
2019-06-20T21:38:17.428Z,8.10
2019-06-20T21:41:15.096Z,9.50
2019-06-20T21:44:12.839Z,8.90
2019-06-20T21:47:10.933Z,8.30
2019-06-20T21:50:08.883Z,10.70
2019-06-20T21:53:06.649Z,12.03
2019-06-20T21:56:04.691Z,9.17
2019-06-20T21:59:02.917Z,11.63
2019-06-20T22:02:00.689Z,8.23
2019-06-20T22:04:58.712Z,8.23
2019-06-20T22:07:56.428Z,10.47
2019-06-20T22:10:54.479Z,8.07
2019-06-20T22:13:52.451Z,7.60
2019-06-20T22:16:50.206Z,8.17
2019-06-20T22:19:48.270Z,8.13
2019-06-20T22:22:46.014Z,6.70
2019-06-20T22:25:44.016Z,10.93
2019-06-20T22:28:41.764Z,6.40
2019-06-20T22:31:39.460Z,7.13
2019-06-20T22:34:37.460Z,9.77
2019-06-20T22:37:35.230Z,6.00
2019-06-20T22:40:32.901Z,7.00
2019-06-20T22:43:31.002Z,5.27
2019-06-20T22:46:28.692Z,5.23
2019-06-20T22:49:26.444Z,5.70
2019-06-20T22:52:24.380Z,5.40
2019-06-20T22:55:22.061Z,4.90
2019-06-20T22:58:20.101Z,5.27
2019-06-20T23:01:17.847Z,4.30
2019-06-20T23:04:16.176Z,5.73
2019-06-20T23:07:13.845Z,4.10
2019-06-20T23:10:11.920Z,6.67
2019-06-20T23:13:09.608Z,12.07
2019-06-20T23:16:07.845Z,10.33
2019-06-20T23:19:05.877Z,8.57
2019-06-20T23:22:03.631Z,8.53
2019-06-20T23:25:01.352Z,10.17
2019-06-20T23:27:59.226Z,8.50
2019-06-20T23:30:56.952Z,9.60
2019-06-20T23:33:54.878Z,8.80
2019-06-20T23:36:52.800Z,10.17
2019-06-20T23:39:50.818Z,8.27
2019-06-20T23:42:48.561Z,7.50
2019-06-20T23:45:46.248Z,9.40
2019-06-20T23:48:44.274Z,8.70
2019-06-20T23:51:48.054Z,10.10
2019-06-20T23:54:46.072Z,10.83
2019-06-20T23:57:43.816Z,6.50
